sensor_id;sensor_type;location;lat;lon;timestamp;P1;durP1;ratioP1;P2;durP2;ratioP2
54555;SDS011;57291;37.520;15.106;2024-02-16T00:01:04;14.85;;;7.35;;
54555;SDS011;57291;37.520;15.106;2024-02-16T00:03:32;11.77;;;6.40;;
54555;SDS011;57291;37.520;15.106;2024-02-16T00:05:59;12.98;;;6.07;;
54555;SDS011;57291;37.520;15.106;2024-02-16T00:08:27;13.45;;;6.22;;
54555;SDS011;57291;37.520;15.106;2024-02-16T00:10:54;14.32;;;6.40;;
54555;SDS011;57291;37.520;15.106;2024-02-16T00:13:21;20.40;;;6.60;;
54555;SDS011;57291;37.520;15.106;2024-02-16T00:15:49;17.58;;;7.00;;
54555;SDS011;57291;37.520;15.106;2024-02-16T00:18:16;13.90;;;6.43;;
54555;SDS011;57291;37.520;15.106;2024-02-16T00:20:43;16.40;;;7.43;;
54555;SDS011;57291;37.520;15.106;2024-02-16T00:23:11;15.13;;;5.97;;
54555;SDS011;57291;37.520;15.106;2024-02-16T00:25:38;12.68;;;6.85;;
54555;SDS011;57291;37.520;15.106;2024-02-16T00:28:08;18.15;;;6.88;;
54555;SDS011;57291;37.520;15.106;2024-02-16T00:30:36;11.50;;;6.38;;
54555;SDS011;57291;37.520;15.106;2024-02-16T00:33:03;17.70;;;6.93;;
54555;SDS011;57291;37.520;15.106;2024-02-16T00:35:31;14.43;;;6.97;;
54555;SDS011;57291;37.520;15.106;2024-02-16T00:38:00;16.92;;;7.00;;
54555;SDS011;57291;37.520;15.106;2024-02-16T00:40:27;16.83;;;7.18;;
54555;SDS011;57291;37.520;15.106;2024-02-16T00:42:55;12.55;;;7.07;;
54555;SDS011;57291;37.520;15.106;2024-02-16T00:45:22;14.60;;;6.57;;
54555;SDS011;57291;37.520;15.106;2024-02-16T00:47:50;13.40;;;6.82;;
54555;SDS011;57291;37.520;15.106;2024-02-16T00:50:17;15.70;;;7.38;;
54555;SDS011;57291;37.520;15.106;2024-02-16T00:52:44;12.35;;;7.28;;
54555;SDS011;57291;37.520;15.106;2024-02-16T00:55:13;15.07;;;6.82;;
54555;SDS011;57291;37.520;15.106;2024-02-16T00:57:42;15.82;;;7.25;;
54555;SDS011;57291;37.520;15.106;2024-02-16T01:00:09;14.65;;;7.18;;
54555;SDS011;57291;37.520;15.106;2024-02-16T01:02:37;16.08;;;7.57;;
54555;SDS011;57291;37.520;15.106;2024-02-16T01:05:05;11.63;;;6.75;;
54555;SDS011;57291;37.520;15.106;2024-02-16T01:07:32;15.52;;;6.63;;
54555;SDS011;57291;37.520;15.106;2024-02-16T01:10:00;11.90;;;6.70;;
54555;SDS011;57291;37.520;15.106;2024-02-16T01:12:30;14.50;;;7.18;;
54555;SDS011;57291;37.520;15.106;2024-02-16T01:15:00;18.00;;;7.28;;
54555;SDS011;57291;37.520;15.106;2024-02-16T01:17:28;14.77;;;7.30;;
54555;SDS011;57291;37.520;15.106;2024-02-16T01:19:57;16.75;;;8.15;;
54555;SDS011;57291;37.520;15.106;2024-02-16T01:22:24;15.70;;;7.60;;
54555;SDS011;57291;37.520;15.106;2024-02-16T01:24:51;16.77;;;8.15;;
54555;SDS011;57291;37.520;15.106;2024-02-16T01:27:19;16.88;;;7.95;;
54555;SDS011;57291;37.520;15.106;2024-02-16T01:29:46;19.67;;;7.90;;
54555;SDS011;57291;37.520;15.106;2024-02-16T01:32:14;15.85;;;7.90;;
54555;SDS011;57291;37.520;15.106;2024-02-16T01:34:41;17.13;;;8.15;;
54555;SDS011;57291;37.520;15.106;2024-02-16T01:37:11;12.38;;;7.32;;
54555;SDS011;57291;37.520;15.106;2024-02-16T01:39:38;15.07;;;7.72;;
54555;SDS011;57291;37.520;15.106;2024-02-16T01:42:06;14.07;;;7.35;;
54555;SDS011;57291;37.520;15.106;2024-02-16T01:44:33;15.20;;;7.72;;
54555;SDS011;57291;37.520;15.106;2024-02-16T01:47:00;17.02;;;6.78;;
54555;SDS011;57291;37.520;15.106;2024-02-16T01:49:28;16.45;;;7.50;;
54555;SDS011;57291;37.520;15.106;2024-02-16T01:51:56;15.43;;;6.43;;
54555;SDS011;57291;37.520;15.106;2024-02-16T01:54:26;14.20;;;6.95;;
54555;SDS011;57291;37.520;15.106;2024-02-16T01:56:54;12.57;;;6.38;;
54555;SDS011;57291;37.520;15.106;2024-02-16T01:59:22;11.25;;;5.97;;
54555;SDS011;57291;37.520;15.106;2024-02-16T02:01:50;11.98;;;5.88;;
54555;SDS011;57291;37.520;15.106;2024-02-16T02:04:18;11.00;;;5.60;;
54555;SDS011;57291;37.520;15.106;2024-02-16T02:06:46;12.55;;;5.80;;
54555;SDS011;57291;37.520;15.106;2024-02-16T02:09:14;11.70;;;5.85;;
54555;SDS011;57291;37.520;15.106;2024-02-16T02:11:41;11.80;;;6.00;;
54555;SDS011;57291;37.520;15.106;2024-02-16T02:14:08;12.45;;;6.32;;
54555;SDS011;57291;37.520;15.106;2024-02-16T02:16:36;14.20;;;5.32;;
54555;SDS011;57291;37.520;15.106;2024-02-16T02:19:17;12.77;;;5.90;;
54555;SDS011;57291;37.520;15.106;2024-02-16T02:21:44;9.60;;;4.97;;
54555;SDS011;57291;37.520;15.106;2024-02-16T02:24:11;14.85;;;5.63;;
54555;SDS011;57291;37.520;15.106;2024-02-16T02:26:39;10.05;;;4.88;;
54555;SDS011;57291;37.520;15.106;2024-02-16T02:29:06;10.95;;;4.60;;
54555;SDS011;57291;37.520;15.106;2024-02-16T02:31:34;11.82;;;5.15;;
54555;SDS011;57291;37.520;15.106;2024-02-16T02:34:01;10.65;;;5.18;;
54555;SDS011;57291;37.520;15.106;2024-02-16T02:36:29;7.40;;;4.72;;
54555;SDS011;57291;37.520;15.106;2024-02-16T02:38:56;9.55;;;4.78;;
54555;SDS011;57291;37.520;15.106;2024-02-16T02:41:24;12.35;;;4.78;;
54555;SDS011;57291;37.520;15.106;2024-02-16T02:43:52;10.68;;;4.75;;
54555;SDS011;57291;37.520;15.106;2024-02-16T02:46:19;10.73;;;4.85;;
54555;SDS011;57291;37.520;15.106;2024-02-16T02:48:47;10.00;;;4.93;;
54555;SDS011;57291;37.520;15.106;2024-02-16T02:51:18;12.15;;;5.28;;
54555;SDS011;57291;37.520;15.106;2024-02-16T02:53:46;18.23;;;6.30;;
54555;SDS011;57291;37.520;15.106;2024-02-16T02:56:13;17.02;;;7.32;;
54555;SDS011;57291;37.520;15.106;2024-02-16T02:58:40;16.00;;;6.30;;
54555;SDS011;57291;37.520;15.106;2024-02-16T03:01:08;12.35;;;6.18;;
54555;SDS011;57291;37.520;15.106;2024-02-16T03:03:36;11.60;;;6.00;;
54555;SDS011;57291;37.520;15.106;2024-02-16T03:06:03;11.15;;;5.75;;
54555;SDS011;57291;37.520;15.106;2024-02-16T03:08:31;14.00;;;4.95;;
54555;SDS011;57291;37.520;15.106;2024-02-16T03:10:58;10.05;;;5.35;;
54555;SDS011;57291;37.520;15.106;2024-02-16T03:13:34;12.18;;;5.22;;
54555;SDS011;57291;37.520;15.106;2024-02-16T03:16:01;13.57;;;5.22;;
54555;SDS011;57291;37.520;15.106;2024-02-16T03:18:29;9.43;;;4.55;;
54555;SDS011;57291;37.520;15.106;2024-02-16T03:20:57;11.63;;;4.70;;
54555;SDS011;57291;37.520;15.106;2024-02-16T03:23:25;11.05;;;4.85;;
54555;SDS011;57291;37.520;15.106;2024-02-16T03:25:52;11.48;;;4.75;;
54555;SDS011;57291;37.520;15.106;2024-02-16T03:28:20;7.78;;;4.10;;
54555;SDS011;57291;37.520;15.106;2024-02-16T03:30:47;7.47;;;4.20;;
54555;SDS011;57291;37.520;15.106;2024-02-16T03:33:14;9.00;;;3.80;;
54555;SDS011;57291;37.520;15.106;2024-02-16T03:35:42;11.15;;;4.00;;
54555;SDS011;57291;37.520;15.106;2024-02-16T03:38:09;8.65;;;3.70;;
54555;SDS011;57291;37.520;15.106;2024-02-16T03:40:36;9.23;;;4.30;;
54555;SDS011;57291;37.520;15.106;2024-02-16T03:43:04;9.23;;;3.90;;
54555;SDS011;57291;37.520;15.106;2024-02-16T03:45:31;7.22;;;4.45;;
54555;SDS011;57291;37.520;15.106;2024-02-16T03:47:58;9.93;;;4.40;;
54555;SDS011;57291;37.520;15.106;2024-02-16T03:50:26;10.63;;;4.53;;
54555;SDS011;57291;37.520;15.106;2024-02-16T03:52:54;7.47;;;3.42;;
54555;SDS011;57291;37.520;15.106;2024-02-16T03:55:21;9.40;;;3.88;;
54555;SDS011;57291;37.520;15.106;2024-02-16T03:57:48;8.45;;;4.07;;
54555;SDS011;57291;37.520;15.106;2024-02-16T04:00:16;7.65;;;3.78;;
54555;SDS011;57291;37.520;15.106;2024-02-16T04:02:43;8.85;;;4.75;;
54555;SDS011;57291;37.520;15.106;2024-02-16T04:05:12;15.27;;;5.05;;
54555;SDS011;57291;37.520;15.106;2024-02-16T04:07:39;12.85;;;4.95;;
54555;SDS011;57291;37.520;15.106;2024-02-16T04:10:07;9.48;;;4.63;;
54555;SDS011;57291;37.520;15.106;2024-02-16T04:12:35;11.05;;;4.22;;
54555;SDS011;57291;37.520;15.106;2024-02-16T04:15:03;8.57;;;4.45;;
54555;SDS011;57291;37.520;15.106;2024-02-16T04:17:31;8.77;;;4.15;;
54555;SDS011;57291;37.520;15.106;2024-02-16T04:19:58;7.25;;;3.92;;
54555;SDS011;57291;37.520;15.106;2024-02-16T04:22:26;8.88;;;3.88;;
54555;SDS011;57291;37.520;15.106;2024-02-16T04:24:53;6.63;;;3.75;;
54555;SDS011;57291;37.520;15.106;2024-02-16T04:27:21;7.70;;;3.50;;
54555;SDS011;57291;37.520;15.106;2024-02-16T04:29:48;7.78;;;3.20;;
54555;SDS011;57291;37.520;15.106;2024-02-16T04:32:16;6.82;;;3.50;;
54555;SDS011;57291;37.520;15.106;2024-02-16T04:34:43;7.55;;;3.75;;
54555;SDS011;57291;37.520;15.106;2024-02-16T04:37:14;10.75;;;4.30;;
54555;SDS011;57291;37.520;15.106;2024-02-16T04:39:42;9.30;;;4.05;;
54555;SDS011;57291;37.520;15.106;2024-02-16T04:42:10;7.97;;;4.00;;
54555;SDS011;57291;37.520;15.106;2024-02-16T04:44:37;8.40;;;4.25;;
54555;SDS011;57291;37.520;15.106;2024-02-16T04:47:05;9.35;;;3.60;;
54555;SDS011;57291;37.520;15.106;2024-02-16T04:49:33;9.35;;;3.58;;
54555;SDS011;57291;37.520;15.106;2024-02-16T04:52:00;8.52;;;3.75;;
54555;SDS011;57291;37.520;15.106;2024-02-16T04:54:28;6.88;;;3.40;;
54555;SDS011;57291;37.520;15.106;2024-02-16T04:56:59;7.28;;;3.97;;
54555;SDS011;57291;37.520;15.106;2024-02-16T04:59:27;6.65;;;3.80;;
54555;SDS011;57291;37.520;15.106;2024-02-16T05:01:54;10.77;;;4.20;;
54555;SDS011;57291;37.520;15.106;2024-02-16T05:04:22;9.30;;;3.80;;
54555;SDS011;57291;37.520;15.106;2024-02-16T05:06:50;12.38;;;3.95;;
54555;SDS011;57291;37.520;15.106;2024-02-16T05:09:19;7.18;;;3.70;;
54555;SDS011;57291;37.520;15.106;2024-02-16T05:11:46;7.30;;;4.00;;
54555;SDS011;57291;37.520;15.106;2024-02-16T05:14:14;10.35;;;4.43;;
54555;SDS011;57291;37.520;15.106;2024-02-16T05:16:44;8.48;;;4.18;;
54555;SDS011;57291;37.520;15.106;2024-02-16T05:19:12;7.70;;;4.15;;
54555;SDS011;57291;37.520;15.106;2024-02-16T05:21:40;9.00;;;4.45;;
54555;SDS011;57291;37.520;15.106;2024-02-16T05:24:08;9.52;;;4.60;;
54555;SDS011;57291;37.520;15.106;2024-02-16T05:26:36;8.23;;;4.32;;
54555;SDS011;57291;37.520;15.106;2024-02-16T05:29:03;9.15;;;5.10;;
54555;SDS011;57291;37.520;15.106;2024-02-16T05:31:31;8.35;;;4.72;;
54555;SDS011;57291;37.520;15.106;2024-02-16T05:33:58;9.88;;;5.15;;
54555;SDS011;57291;37.520;15.106;2024-02-16T05:36:26;7.20;;;4.70;;
54555;SDS011;57291;37.520;15.106;2024-02-16T05:38:57;8.00;;;4.35;;
54555;SDS011;57291;37.520;15.106;2024-02-16T05:41:36;10.45;;;5.00;;
54555;SDS011;57291;37.520;15.106;2024-02-16T05:44:05;10.38;;;4.75;;
54555;SDS011;57291;37.520;15.106;2024-02-16T05:46:32;9.27;;;5.70;;
54555;SDS011;57291;37.520;15.106;2024-02-16T05:49:00;9.38;;;5.20;;
54555;SDS011;57291;37.520;15.106;2024-02-16T05:51:38;10.60;;;5.47;;
54555;SDS011;57291;37.520;15.106;2024-02-16T05:54:09;9.20;;;5.13;;
54555;SDS011;57291;37.520;15.106;2024-02-16T05:56:37;9.00;;;5.03;;
54555;SDS011;57291;37.520;15.106;2024-02-16T05:59:06;9.07;;;4.90;;
54555;SDS011;57291;37.520;15.106;2024-02-16T06:01:33;13.55;;;5.10;;
54555;SDS011;57291;37.520;15.106;2024-02-16T06:04:00;11.88;;;4.70;;
54555;SDS011;57291;37.520;15.106;2024-02-16T06:06:27;7.32;;;4.75;;
54555;SDS011;57291;37.520;15.106;2024-02-16T06:08:55;9.00;;;4.85;;
54555;SDS011;57291;37.520;15.106;2024-02-16T06:11:22;7.57;;;4.80;;
54555;SDS011;57291;37.520;15.106;2024-02-16T06:13:50;9.38;;;4.88;;
54555;SDS011;57291;37.520;15.106;2024-02-16T06:16:17;9.85;;;4.72;;
54555;SDS011;57291;37.520;15.106;2024-02-16T06:18:44;9.70;;;4.72;;
54555;SDS011;57291;37.520;15.106;2024-02-16T06:21:12;9.52;;;4.75;;
54555;SDS011;57291;37.520;15.106;2024-02-16T06:23:40;8.30;;;4.38;;
54555;SDS011;57291;37.520;15.106;2024-02-16T06:26:07;7.97;;;4.60;;
54555;SDS011;57291;37.520;15.106;2024-02-16T06:28:34;8.73;;;4.97;;
54555;SDS011;57291;37.520;15.106;2024-02-16T06:31:02;11.68;;;4.90;;
54555;SDS011;57291;37.520;15.106;2024-02-16T06:33:29;11.88;;;4.97;;
54555;SDS011;57291;37.520;15.106;2024-02-16T06:35:57;8.23;;;4.90;;
54555;SDS011;57291;37.520;15.106;2024-02-16T06:38:25;9.65;;;4.10;;
54555;SDS011;57291;37.520;15.106;2024-02-16T06:40:52;6.95;;;4.50;;
54555;SDS011;57291;37.520;15.106;2024-02-16T06:43:20;10.65;;;4.40;;
54555;SDS011;57291;37.520;15.106;2024-02-16T06:45:47;9.55;;;4.30;;
54555;SDS011;57291;37.520;15.106;2024-02-16T06:48:14;10.82;;;5.15;;
54555;SDS011;57291;37.520;15.106;2024-02-16T06:50:42;9.57;;;4.40;;
54555;SDS011;57291;37.520;15.106;2024-02-16T06:53:10;8.68;;;4.50;;
54555;SDS011;57291;37.520;15.106;2024-02-16T06:55:37;10.82;;;5.75;;
54555;SDS011;57291;37.520;15.106;2024-02-16T06:58:04;9.60;;;5.13;;
54555;SDS011;57291;37.520;15.106;2024-02-16T07:00:32;13.18;;;5.40;;
54555;SDS011;57291;37.520;15.106;2024-02-16T07:02:59;11.88;;;4.88;;
54555;SDS011;57291;37.520;15.106;2024-02-16T07:05:27;11.10;;;5.22;;
54555;SDS011;57291;37.520;15.106;2024-02-16T07:07:56;11.32;;;5.10;;
54555;SDS011;57291;37.520;15.106;2024-02-16T07:10:24;9.75;;;5.25;;
54555;SDS011;57291;37.520;15.106;2024-02-16T07:12:51;9.18;;;4.97;;
54555;SDS011;57291;37.520;15.106;2024-02-16T07:15:21;9.57;;;5.18;;
54555;SDS011;57291;37.520;15.106;2024-02-16T07:17:48;12.88;;;5.38;;
54555;SDS011;57291;37.520;15.106;2024-02-16T07:20:16;10.75;;;5.38;;
54555;SDS011;57291;37.520;15.106;2024-02-16T07:22:43;10.77;;;5.43;;
54555;SDS011;57291;37.520;15.106;2024-02-16T07:25:13;12.15;;;6.15;;
54555;SDS011;57291;37.520;15.106;2024-02-16T07:27:44;15.55;;;6.53;;
54555;SDS011;57291;37.520;15.106;2024-02-16T07:30:11;13.98;;;6.00;;
54555;SDS011;57291;37.520;15.106;2024-02-16T07:32:49;14.02;;;5.78;;
54555;SDS011;57291;37.520;15.106;2024-02-16T07:35:20;15.32;;;5.20;;
54555;SDS011;57291;37.520;15.106;2024-02-16T07:37:52;14.25;;;5.60;;
54555;SDS011;57291;37.520;15.106;2024-02-16T07:40:21;11.10;;;5.15;;
54555;SDS011;57291;37.520;15.106;2024-02-16T07:42:50;16.55;;;6.10;;
54555;SDS011;57291;37.520;15.106;2024-02-16T07:45:17;17.75;;;6.03;;
54555;SDS011;57291;37.520;15.106;2024-02-16T07:47:44;17.45;;;6.72;;
54555;SDS011;57291;37.520;15.106;2024-02-16T07:50:12;12.85;;;6.65;;
54555;SDS011;57291;37.520;15.106;2024-02-16T07:52:40;18.08;;;5.88;;
54555;SDS011;57291;37.520;15.106;2024-02-16T07:55:07;20.42;;;8.65;;
54555;SDS011;57291;37.520;15.106;2024-02-16T07:57:37;18.08;;;10.02;;
54555;SDS011;57291;37.520;15.106;2024-02-16T08:00:05;28.58;;;11.32;;
54555;SDS011;57291;37.520;15.106;2024-02-16T08:02:33;25.75;;;10.73;;
54555;SDS011;57291;37.520;15.106;2024-02-16T08:05:01;28.83;;;10.68;;
54555;SDS011;57291;37.520;15.106;2024-02-16T08:07:28;22.55;;;9.70;;
54555;SDS011;57291;37.520;15.106;2024-02-16T08:09:56;28.52;;;10.40;;
54555;SDS011;57291;37.520;15.106;2024-02-16T08:12:24;20.30;;;9.77;;
54555;SDS011;57291;37.520;15.106;2024-02-16T08:14:53;24.48;;;11.70;;
54555;SDS011;57291;37.520;15.106;2024-02-16T08:17:23;29.05;;;12.98;;
54555;SDS011;57291;37.520;15.106;2024-02-16T08:19:55;24.83;;;14.07;;
54555;SDS011;57291;37.520;15.106;2024-02-16T08:22:23;21.63;;;11.77;;
54555;SDS011;57291;37.520;15.106;2024-02-16T08:24:54;20.95;;;11.23;;
54555;SDS011;57291;37.520;15.106;2024-02-16T08:27:21;21.63;;;11.25;;
54555;SDS011;57291;37.520;15.106;2024-02-16T08:29:49;18.77;;;9.18;;
54555;SDS011;57291;37.520;15.106;2024-02-16T08:32:18;23.40;;;9.48;;
54555;SDS011;57291;37.520;15.106;2024-02-16T08:34:48;14.93;;;8.52;;
54555;SDS011;57291;37.520;15.106;2024-02-16T08:37:15;18.92;;;9.77;;
54555;SDS011;57291;37.520;15.106;2024-02-16T08:39:43;18.92;;;9.50;;
54555;SDS011;57291;37.520;15.106;2024-02-16T08:42:11;16.92;;;9.43;;
54555;SDS011;57291;37.520;15.106;2024-02-16T08:44:39;16.67;;;9.18;;
54555;SDS011;57291;37.520;15.106;2024-02-16T08:47:07;19.70;;;8.98;;
54555;SDS011;57291;37.520;15.106;2024-02-16T08:49:35;21.17;;;9.00;;
54555;SDS011;57291;37.520;15.106;2024-02-16T08:52:02;19.83;;;8.70;;
54555;SDS011;57291;37.520;15.106;2024-02-16T08:54:30;19.70;;;7.63;;
54555;SDS011;57291;37.520;15.106;2024-02-16T08:56:58;16.00;;;7.05;;
54555;SDS011;57291;37.520;15.106;2024-02-16T08:59:25;14.20;;;6.93;;
54555;SDS011;57291;37.520;15.106;2024-02-16T09:01:53;14.40;;;6.47;;
54555;SDS011;57291;37.520;15.106;2024-02-16T09:04:21;15.43;;;7.55;;
54555;SDS011;57291;37.520;15.106;2024-02-16T09:06:48;15.82;;;6.63;;
54555;SDS011;57291;37.520;15.106;2024-02-16T09:09:17;17.63;;;7.25;;
54555;SDS011;57291;37.520;15.106;2024-02-16T09:11:45;15.57;;;6.20;;
54555;SDS011;57291;37.520;15.106;2024-02-16T09:14:12;14.15;;;6.05;;
54555;SDS011;57291;37.520;15.106;2024-02-16T09:16:41;16.17;;;5.65;;
54555;SDS011;57291;37.520;15.106;2024-02-16T09:19:09;15.00;;;5.40;;
54555;SDS011;57291;37.520;15.106;2024-02-16T09:21:37;12.60;;;5.68;;
54555;SDS011;57291;37.520;15.106;2024-02-16T09:24:04;19.15;;;6.57;;
54555;SDS011;57291;37.520;15.106;2024-02-16T09:26:38;12.00;;;6.18;;
54555;SDS011;57291;37.520;15.106;2024-02-16T09:29:06;16.05;;;6.55;;
54555;SDS011;57291;37.520;15.106;2024-02-16T09:31:33;14.63;;;5.55;;
54555;SDS011;57291;37.520;15.106;2024-02-16T09:34:00;13.82;;;5.88;;
54555;SDS011;57291;37.520;15.106;2024-02-16T09:36:29;15.45;;;6.78;;
54555;SDS011;57291;37.520;15.106;2024-02-16T09:38:57;13.63;;;6.05;;
54555;SDS011;57291;37.520;15.106;2024-02-16T09:41:24;12.32;;;6.10;;
54555;SDS011;57291;37.520;15.106;2024-02-16T09:43:52;14.05;;;6.30;;
54555;SDS011;57291;37.520;15.106;2024-02-16T09:46:21;16.15;;;6.88;;
54555;SDS011;57291;37.520;15.106;2024-02-16T09:48:49;10.80;;;5.75;;
54555;SDS011;57291;37.520;15.106;2024-02-16T09:51:19;12.45;;;6.03;;
54555;SDS011;57291;37.520;15.106;2024-02-16T09:53:50;14.82;;;7.75;;
54555;SDS011;57291;37.520;15.106;2024-02-16T09:56:26;15.63;;;7.65;;
54555;SDS011;57291;37.520;15.106;2024-02-16T09:58:54;12.85;;;6.60;;
54555;SDS011;57291;37.520;15.106;2024-02-16T10:01:24;12.35;;;6.57;;
54555;SDS011;57291;37.520;15.106;2024-02-16T10:03:51;13.75;;;6.55;;
54555;SDS011;57291;37.520;15.106;2024-02-16T10:06:19;11.93;;;5.63;;
54555;SDS011;57291;37.520;15.106;2024-02-16T10:08:53;11.63;;;5.88;;
54555;SDS011;57291;37.520;15.106;2024-02-16T10:11:27;14.30;;;5.45;;
54555;SDS011;57291;37.520;15.106;2024-02-16T10:14:02;9.45;;;4.55;;
54555;SDS011;57291;37.520;15.106;2024-02-16T10:16:31;11.48;;;5.30;;
54555;SDS011;57291;37.520;15.106;2024-02-16T10:19:05;9.15;;;5.00;;
54555;SDS011;57291;37.520;15.106;2024-02-16T10:21:33;11.90;;;5.25;;
54555;SDS011;57291;37.520;15.106;2024-02-16T10:26:38;14.73;;;5.72;;
54555;SDS011;57291;37.520;15.106;2024-02-16T10:29:08;12.48;;;4.72;;
54555;SDS011;57291;37.520;15.106;2024-02-16T10:31:37;10.52;;;4.47;;
54555;SDS011;57291;37.520;15.106;2024-02-16T10:34:05;12.18;;;4.97;;
54555;SDS011;57291;37.520;15.106;2024-02-16T10:36:34;10.50;;;4.30;;
54555;SDS011;57291;37.520;15.106;2024-02-16T10:39:04;9.57;;;4.57;;
54555;SDS011;57291;37.520;15.106;2024-02-16T10:41:40;11.35;;;5.18;;
54555;SDS011;57291;37.520;15.106;2024-02-16T10:44:08;14.40;;;4.07;;
54555;SDS011;57291;37.520;15.106;2024-02-16T10:46:37;11.10;;;4.25;;
54555;SDS011;57291;37.520;15.106;2024-02-16T10:49:05;13.27;;;4.40;;
54555;SDS011;57291;37.520;15.106;2024-02-16T10:51:49;7.88;;;3.97;;
54555;SDS011;57291;37.520;15.106;2024-02-16T10:54:21;9.40;;;3.83;;
54555;SDS011;57291;37.520;15.106;2024-02-16T10:56:53;9.00;;;3.92;;
54555;SDS011;57291;37.520;15.106;2024-02-16T10:59:22;7.85;;;3.28;;
54555;SDS011;57291;37.520;15.106;2024-02-16T11:01:58;7.93;;;3.47;;
54555;SDS011;57291;37.520;15.106;2024-02-16T11:04:35;8.32;;;3.22;;
54555;SDS011;57291;37.520;15.106;2024-02-16T11:07:17;11.35;;;3.30;;
54555;SDS011;57291;37.520;15.106;2024-02-16T11:09:46;7.47;;;3.17;;
54555;SDS011;57291;37.520;15.106;2024-02-16T11:12:15;7.57;;;2.35;;
54555;SDS011;57291;37.520;15.106;2024-02-16T11:17:12;7.75;;;3.08;;
54555;SDS011;57291;37.520;15.106;2024-02-16T11:19:42;8.20;;;3.38;;
54555;SDS011;57291;37.520;15.106;2024-02-16T11:22:14;6.15;;;3.58;;
54555;SDS011;57291;37.520;15.106;2024-02-16T11:24:43;13.50;;;3.42;;
54555;SDS011;57291;37.520;15.106;2024-02-16T11:27:12;7.88;;;3.65;;
54555;SDS011;57291;37.520;15.106;2024-02-16T11:29:42;7.75;;;2.92;;
54555;SDS011;57291;37.520;15.106;2024-02-16T11:32:10;8.82;;;3.47;;
54555;SDS011;57291;37.520;15.106;2024-02-16T11:34:37;9.75;;;3.60;;
54555;SDS011;57291;37.520;15.106;2024-02-16T11:37:05;13.25;;;3.83;;
54555;SDS011;57291;37.520;15.106;2024-02-16T11:39:33;9.68;;;3.40;;
54555;SDS011;57291;37.520;15.106;2024-02-16T11:42:07;12.23;;;3.72;;
54555;SDS011;57291;37.520;15.106;2024-02-16T11:44:38;14.07;;;3.28;;
54555;SDS011;57291;37.520;15.106;2024-02-16T11:47:07;7.13;;;3.40;;
54555;SDS011;57291;37.520;15.106;2024-02-16T11:49:44;6.97;;;3.33;;
54555;SDS011;57291;37.520;15.106;2024-02-16T11:52:11;12.48;;;3.90;;
54555;SDS011;57291;37.520;15.106;2024-02-16T11:54:44;9.57;;;3.47;;
54555;SDS011;57291;37.520;15.106;2024-02-16T11:57:12;12.82;;;4.20;;
54555;SDS011;57291;37.520;15.106;2024-02-16T11:59:40;9.05;;;3.83;;
54555;SDS011;57291;37.520;15.106;2024-02-16T12:02:08;11.27;;;3.60;;
54555;SDS011;57291;37.520;15.106;2024-02-16T12:04:59;10.95;;;4.07;;
54555;SDS011;57291;37.520;15.106;2024-02-16T12:07:30;8.95;;;4.30;;
54555;SDS011;57291;37.520;15.106;2024-02-16T12:10:01;10.52;;;4.13;;
54555;SDS011;57291;37.520;15.106;2024-02-16T12:12:33;10.30;;;4.28;;
54555;SDS011;57291;37.520;15.106;2024-02-16T12:15:02;12.88;;;4.13;;
54555;SDS011;57291;37.520;15.106;2024-02-16T12:17:31;12.15;;;4.82;;
54555;SDS011;57291;37.520;15.106;2024-02-16T12:19:59;13.38;;;4.80;;
54555;SDS011;57291;37.520;15.106;2024-02-16T12:22:26;8.70;;;4.18;;
54555;SDS011;57291;37.520;15.106;2024-02-16T12:24:53;11.32;;;3.80;;
54555;SDS011;57291;37.520;15.106;2024-02-16T12:27:21;12.68;;;3.75;;
54555;SDS011;57291;37.520;15.106;2024-02-16T12:29:48;11.55;;;3.83;;
54555;SDS011;57291;37.520;15.106;2024-02-16T12:32:16;9.55;;;3.60;;
54555;SDS011;57291;37.520;15.106;2024-02-16T12:34:46;11.00;;;3.60;;
54555;SDS011;57291;37.520;15.106;2024-02-16T12:37:14;10.68;;;3.75;;
54555;SDS011;57291;37.520;15.106;2024-02-16T12:39:41;12.95;;;3.78;;
54555;SDS011;57291;37.520;15.106;2024-02-16T12:42:08;8.63;;;3.33;;
54555;SDS011;57291;37.520;15.106;2024-02-16T12:44:36;7.57;;;3.58;;
54555;SDS011;57291;37.520;15.106;2024-02-16T12:47:03;11.30;;;3.58;;
54555;SDS011;57291;37.520;15.106;2024-02-16T12:49:30;8.98;;;4.07;;
54555;SDS011;57291;37.520;15.106;2024-02-16T12:51:58;9.70;;;3.38;;
54555;SDS011;57291;37.520;15.106;2024-02-16T12:54:25;9.68;;;3.20;;
54555;SDS011;57291;37.520;15.106;2024-02-16T12:56:53;7.72;;;3.17;;
54555;SDS011;57291;37.520;15.106;2024-02-16T12:59:21;8.40;;;3.42;;
54555;SDS011;57291;37.520;15.106;2024-02-16T13:01:48;12.55;;;3.50;;
54555;SDS011;57291;37.520;15.106;2024-02-16T13:04:17;8.38;;;3.33;;
54555;SDS011;57291;37.520;15.106;2024-02-16T13:06:49;8.25;;;3.30;;
54555;SDS011;57291;37.520;15.106;2024-02-16T13:09:17;10.20;;;4.13;;
54555;SDS011;57291;37.520;15.106;2024-02-16T13:11:45;9.85;;;3.55;;
54555;SDS011;57291;37.520;15.106;2024-02-16T13:14:12;11.05;;;4.03;;
54555;SDS011;57291;37.520;15.106;2024-02-16T13:16:40;7.65;;;3.13;;
54555;SDS011;57291;37.520;15.106;2024-02-16T13:19:08;10.75;;;3.63;;
54555;SDS011;57291;37.520;15.106;2024-02-16T13:21:37;7.65;;;3.10;;
54555;SDS011;57291;37.520;15.106;2024-02-16T13:24:05;9.02;;;3.35;;
54555;SDS011;57291;37.520;15.106;2024-02-16T13:26:33;8.40;;;3.17;;
54555;SDS011;57291;37.520;15.106;2024-02-16T13:29:01;8.77;;;3.05;;
54555;SDS011;57291;37.520;15.106;2024-02-16T13:31:29;9.48;;;3.10;;
54555;SDS011;57291;37.520;15.106;2024-02-16T13:33:58;6.97;;;2.60;;
54555;SDS011;57291;37.520;15.106;2024-02-16T13:36:26;12.10;;;3.15;;
54555;SDS011;57291;37.520;15.106;2024-02-16T13:38:53;8.10;;;2.60;;
54555;SDS011;57291;37.520;15.106;2024-02-16T13:41:20;10.23;;;3.08;;
54555;SDS011;57291;37.520;15.106;2024-02-16T13:43:48;9.48;;;2.95;;
54555;SDS011;57291;37.520;15.106;2024-02-16T13:46:15;9.77;;;3.20;;
54555;SDS011;57291;37.520;15.106;2024-02-16T13:48:43;9.02;;;2.60;;
54555;SDS011;57291;37.520;15.106;2024-02-16T13:51:10;7.63;;;2.97;;
54555;SDS011;57291;37.520;15.106;2024-02-16T13:53:38;8.40;;;3.00;;
54555;SDS011;57291;37.520;15.106;2024-02-16T13:56:05;7.75;;;3.03;;
54555;SDS011;57291;37.520;15.106;2024-02-16T13:58:33;5.85;;;2.78;;
54555;SDS011;57291;37.520;15.106;2024-02-16T14:01:04;7.97;;;2.80;;
54555;SDS011;57291;37.520;15.106;2024-02-16T14:03:33;5.68;;;2.88;;
54555;SDS011;57291;37.520;15.106;2024-02-16T14:06:01;9.02;;;2.70;;
54555;SDS011;57291;37.520;15.106;2024-02-16T14:08:29;8.20;;;2.90;;
54555;SDS011;57291;37.520;15.106;2024-02-16T14:10:57;6.43;;;2.90;;
54555;SDS011;57291;37.520;15.106;2024-02-16T14:13:24;9.57;;;3.03;;
54555;SDS011;57291;37.520;15.106;2024-02-16T14:15:52;5.68;;;2.92;;
54555;SDS011;57291;37.520;15.106;2024-02-16T14:18:20;7.38;;;3.20;;
54555;SDS011;57291;37.520;15.106;2024-02-16T14:21:01;9.98;;;2.88;;
54555;SDS011;57291;37.520;15.106;2024-02-16T14:23:30;6.57;;;2.97;;
54555;SDS011;57291;37.520;15.106;2024-02-16T14:26:00;9.05;;;3.00;;
54555;SDS011;57291;37.520;15.106;2024-02-16T14:28:27;6.70;;;2.92;;
54555;SDS011;57291;37.520;15.106;2024-02-16T14:30:55;10.85;;;2.90;;
54555;SDS011;57291;37.520;15.106;2024-02-16T14:33:22;8.32;;;3.17;;
54555;SDS011;57291;37.520;15.106;2024-02-16T14:36:00;7.43;;;2.88;;
54555;SDS011;57291;37.520;15.106;2024-02-16T14:38:29;8.90;;;3.35;;